Latest Weather Observations for Kowanyama

IDQ60801

Issued at 10:32 am EST Saturday 1 October 2022 (issued every 10 minutes, with the page automatically refreshed every 10 minutes)

About weather observations | Map of weather stations | Latest weather observations for QLD | Other Formats
Station Details ID: 029038 Name: KOWANYAMA AIRPORT Lat: -15.48 Lon: 141.75 Height: 9.6 m
Data from the previous 72 hours. | See also: Recent months at Kowanyama
Date/Time
EST
Temp
°C
App
Temp
°C
Dew
Point
°C
Rel
Hum
%
Delta-T
°C
Wind Press
QNH
hPa
Press
MSL
hPa
Rain since
9am
mm
Dir  Spd
km/h
Gust
km/h
Spd
kts
Gust
kts
01/10:30am 31.6 31.4 18.6 46 8.4 ENE 17 22 9 12 1012.6 1012.5 0.0
01/10:00am 29.6 29.7 18.4 51 7.2 ENE 15 20 8 11 1013.0 1012.9 0.0
01/09:30am 29.0 28.9 18.7 53 6.6 NE 17 28 9 15 1013.2 1013.1 0.0
01/09:00am 27.9 27.5 18.9 58 5.8 ENE 19 28 10 15 1013.4 1013.3 0.0
01/08:30am 27.6 27.0 18.9 59 5.6 ENE 20 30 11 16 1013.3 1013.2 0.0
01/08:00am 26.9 26.8 18.7 60 5.2 ENE 17 26 9 14 1012.9 1012.8 0.0
01/07:30am 25.8 27.0 19.0 66 4.4 ENE 11 19 6 10 1012.8 1012.7 0.0
01/07:00am 24.9 26.4 18.8 69 3.9 ENE 9 15 5 8 1012.3 1012.2 0.0
01/06:30am 24.4 25.8 18.6 70 3.7 ENE 9 11 5 6 1012.0 1011.9 0.0
01/06:00am 24.7 26.0 18.4 68 4.0 ENE 9 15 5 8 1011.6 1011.5 0.0
01/05:30am 24.9 26.4 18.8 69 3.9 ENE 9 17 5 9 1011.2 1011.1 0.0
01/05:00am 25.2 26.8 19.1 69 3.9 NE 9 13 5 7 1010.7 1010.6 0.0
01/04:30am 25.1 27.3 20.4 75 3.1 NE 9 17 5 9 1010.4 1010.3 0.0
01/04:00am 24.4 27.4 20.9 81 2.3 ENE 6 9 3 5 1010.3 1010.2 0.0
01/03:30am 24.4 27.4 20.9 81 2.3 NNE 6 9 3 5 1010.4 1010.3 0.0
01/03:00am 24.6 27.5 21.1 81 2.3 NE 7 11 4 6 1010.6 1010.5 0.0
01/02:30am 25.1 29.3 21.0 78 2.7 CALM 0 0 0 0 1010.8 1010.7 0.0
01/02:00am 25.6 29.9 21.1 76 3.0 CALM 0 0 0 0 1011.0 1010.9 0.0
01/01:30am 26.0 30.2 21.0 74 3.3 CALM 0 0 0 0 1011.4 1011.3 0.0
01/01:00am 26.2 30.4 21.0 73 3.4 CALM 0 0 0 0 1011.6 1011.5 0.0
01/12:30am 26.1 29.2 21.1 74 3.3 WSW 6 7 3 4 1011.6 1011.5 0.0
01/12:00am 25.9 29.0 21.1 75 3.2 NNE 6 7 3 4 1011.9 1011.8 0.0
 
Date/Time
EST
Temp
°C
App
Temp
°C
Dew
Point
°C
Rel
Hum
%
Delta-T
°C
Wind Press
QNH
hPa
Press
MSL
hPa
Rain since
9am
mm
Dir  Spd
km/h
Gust
km/h
Spd
kts
Gust
kts
30/11:30pm 26.0 28.9 21.0 74 3.3 NNE 7 9 4 5 1011.9 1011.8 0.0
30/11:00pm 26.0 28.1 21.0 74 3.3 NNE 11 15 6 8 1012.0 1011.9 0.0
30/10:30pm 25.8 28.3 21.0 75 3.2 SW 9 13 5 7 1011.3 1011.2 0.0
30/10:00pm 25.9 28.6 20.7 73 3.4 WSW 7 11 4 6 1011.4 1011.3 0.0
30/09:30pm 26.1 28.5 20.9 73 3.4 WSW 9 11 5 6 1011.3 1011.2 0.0
30/09:00pm 26.5 29.0 21.0 72 3.6 WSW 9 13 5 7 1011.0 1010.9 0.0
30/08:30pm 26.8 28.9 20.9 70 3.9 SW 11 15 6 8 1010.7 1010.6 0.0
30/08:00pm 27.2 29.2 20.8 68 4.2 SW 11 13 6 7 1010.3 1010.2 0.0
30/07:30pm 27.7 29.6 20.5 65 4.7 SW 11 15 6 8 1010.1 1010.0 0.0
30/07:00pm 28.2 29.3 20.5 63 5.1 SW 15 24 8 13 1009.7 1009.6 0.0
30/06:30pm 29.4 30.8 20.3 58 6.0 WSW 13 19 7 10 1009.4 1009.3 0.0
30/06:00pm 30.6 30.5 19.6 51 7.2 WSW 19 24 10 13 1009.1 1009.0 0.0
30/05:30pm 31.5 31.5 19.8 49 7.7 WSW 19 24 10 13 1008.7 1008.6 0.0
30/05:00pm 33.0 32.7 19.1 43 9.1 W 19 28 10 15 1008.6 1008.5 0.0
30/04:30pm 33.9 33.3 18.8 41 9.9 WSW 20 33 11 18 1008.5 1008.4 0.0
30/04:00pm 37.2 36.4 13.9 25 14.4 S 11 17 6 9 1008.3 1008.2 0.0
30/03:30pm 36.2 35.1 13.0 24 14.1 SSW 11 17 6 9 1008.5 1008.4 0.0
30/03:00pm 37.0 36.8 13.7 25 14.4 E 7 17 4 9 1008.8 1008.7 0.0
30/02:30pm 35.5 35.1 14.2 28 13.1 SE 9 15 5 8 1009.1 1009.0 0.0
30/02:00pm 34.6 34.3 14.5 30 12.4 ENE 9 20 5 11 1009.6 1009.5 0.0
30/01:30pm 36.5 36.4 16.1 29 13.0 N 11 15 6 8 1010.0 1009.9 0.0
30/01:00pm 35.3 35.2 16.1 32 12.2 NE 11 22 6 12 1010.7 1010.6 0.0
30/12:30pm 34.0 33.3 16.4 35 11.1 ESE 15 24 8 13 1011.4 1011.3 0.0
30/12:00pm 34.4 34.2 16.7 34 11.3 NE 13 22 7 12 1012.1 1012.0 0.0
30/11:30am 32.6 31.9 16.4 37 10.2 E 15 22 8 12 1012.8 1012.7 0.0
30/11:00am 32.1 31.7 17.2 41 9.5 ENE 15 28 8 15 1013.2 1013.1 0.0
30/10:30am 31.9 31.6 17.4 42 9.2 NE 15 26 8 14 1013.7 1013.6 0.0
30/10:00am 30.7 30.2 17.7 45 8.3 ENE 17 24 9 13 1014.0 1013.9 0.0
30/09:30am 30.0 30.1 18.4 49 7.5 NE 15 22 8 12 1014.4 1014.3 0.0
30/09:00am 28.7 28.5 18.5 54 6.5 ENE 17 28 9 15 1014.5 1014.4 0.0
30/08:30am 27.8 27.7 18.8 58 5.8 NE 17 24 9 13 1014.4 1014.3 0.0
30/08:00am 27.2 28.0 19.0 61 5.3 ENE 13 22 7 12 1014.3 1014.2 0.0
30/07:30am 26.2 27.5 19.3 65 4.4 ENE 11 17 6 9 1014.3 1014.2 0.0
30/07:00am 24.9 27.1 19.1 70 3.7 NE 6 9 3 5 1014.0 1013.9 0.0
30/06:30am 24.1 25.7 18.3 70 3.7 E 7 11 4 6 1013.6 1013.5 0.0
30/06:00am 24.0 25.2 17.3 66 4.2 E 7 11 4 6 1013.2 1013.1 0.0
30/05:30am 22.9 23.0 13.9 57 5.3 E 6 9 3 5 1012.8 1012.7 0.0
30/05:00am 23.7 23.5 13.6 53 5.9 ENE 7 9 4 5 1012.5 1012.4 0.0
30/04:30am 25.2 24.6 12.4 45 7.4 SE 7 9 4 5 1012.2 1012.1 0.0
30/04:00am 25.3 24.7 12.2 44 7.5 SE 7 11 4 6 1012.1 1012.0 0.0
30/03:30am 26.2 25.1 11.9 41 8.2 E 9 11 5 6 1012.0 1011.9 0.0
30/03:00am 27.3 25.5 12.1 39 8.8 SE 13 17 7 9 1012.0 1011.9 0.0
30/02:30am 26.9 25.3 12.9 42 8.2 SE 13 20 7 11 1012.2 1012.1 0.0
30/02:00am 26.1 26.4 14.9 50 6.7 SE 7 11 4 6 1012.4 1012.3 0.0
30/01:30am 26.1 26.8 16.1 54 6.1 SE 7 11 4 6 1012.3 1012.2 0.0
30/01:00am 25.2 26.3 17.1 60 5.0 ESE 7 11 4 6 1012.5 1012.4 0.0
30/12:30am 25.7 27.4 18.1 63 4.8 SSE 6 7 3 4 1012.5 1012.4 0.0
30/12:00am 25.2 26.9 18.6 67 4.2 SSW 7 9 4 5 1012.5 1012.4 0.0
 
Date/Time
EST
Temp
°C
App
Temp
°C
Dew
Point
°C
Rel
Hum
%
Delta-T
°C
Wind Press
QNH
hPa
Press
MSL
hPa
Rain since
9am
mm
Dir  Spd
km/h
Gust
km/h
Spd
kts
Gust
kts
29/11:30pm 25.3 27.8 19.0 68 4.0 S 4 7 2 4 1012.9 1012.8 0.0
29/11:00pm 26.1 28.1 18.8 64 4.7 SSW 6 6 3 3 1012.8 1012.7 0.0
29/10:30pm 26.7 28.7 19.1 63 4.9 SSW 7 9 4 5 1012.7 1012.6 0.0
29/10:00pm 27.1 28.6 18.9 61 5.3 SSW 9 11 5 6 1012.5 1012.4 0.0
29/09:30pm 27.5 29.0 18.8 59 5.6 SSW 9 13 5 7 1012.2 1012.1 0.0
29/09:00pm 27.8 28.7 18.5 57 6.0 SSW 11 13 6 7 1011.9 1011.8 0.0
29/08:30pm 28.2 28.8 18.6 56 6.2 SW 13 17 7 9 1011.6 1011.5 0.0
29/08:00pm 28.3 29.7 19.5 59 5.7 SW 11 17 6 9 1011.3 1011.2 0.0
29/07:30pm 28.8 29.8 19.4 56 6.1 WSW 13 20 7 11 1011.0 1010.9 0.0
29/07:00pm 29.7 30.1 19.1 53 6.9 WSW 15 20 8 11 1010.5 1010.4 0.0
29/06:30pm 30.4 30.5 19.1 50 7.3 W 17 20 9 11 1010.1 1010.0 0.0
29/06:00pm 31.5 31.6 19.2 48 8.0 W 17 24 9 13 1009.8 1009.7 0.0
29/05:30pm 33.2 32.1 18.6 42 9.5 WNW 22 30 12 16 1009.4 1009.3 0.0
29/05:00pm 34.7 34.2 18.7 38 10.5 WNW 19 28 10 15 1009.2 1009.1 0.0
29/04:30pm 35.1 34.8 14.4 29 12.8 ESE 9 17 5 9 1009.1 1009.0 0.0
29/04:00pm 36.2 36.6 14.8 28 13.4 NNE 6 9 3 5 1009.2 1009.1 0.0
29/03:30pm 35.5 34.9 14.7 28 12.9 ESE 11 20 6 11 1009.3 1009.2 0.0
29/03:00pm 36.3 35.8 14.9 28 13.4 SSE 11 19 6 10 1009.5 1009.4 0.0
29/02:30pm 35.8 35.3 15.0 29 13.0 S 11 22 6 12 1009.8 1009.7 0.0
29/02:00pm 35.5 35.1 15.3 30 12.7 SSW 11 19 6 10 1010.2 1010.1 0.0
29/01:30pm 35.2 34.4 15.0 30 12.6 WSW 13 20 7 11 1011.1 1011.0 0.0
29/01:00pm 34.3 34.3 15.2 31 11.9 SE 9 15 5 8 1011.6 1011.5 0.0
29/12:30pm 33.8 32.9 14.8 32 11.7 ESE 13 19 7 10 1012.4 1012.3 0.0
29/12:00pm 33.2 32.4 15.2 33 11.2 SSE 13 28 7 15 1012.7 1012.6 0.0
29/11:30am 32.5 32.1 15.1 35 10.8 ESE 11 20 6 11 1013.3 1013.2 0.0
29/11:00am 32.1 31.3 15.1 35 10.5 ESE 13 19 7 10 1013.6 1013.5 0.0
29/10:30am 30.8 30.0 16.0 40 9.2 ESE 15 22 8 12 1013.8 1013.7 0.0
29/10:00am 30.6 30.2 16.2 41 9.0 ESE 13 22 7 12 1014.1 1014.0 0.0
29/09:30am 29.1 28.6 16.0 45 8.1 ESE 13 20 7 11 1014.1 1014.0 0.0
29/09:00am 28.4 28.2 15.7 46 7.8 ENE 11 19 6 10 1014.3 1014.2 0.0
29/08:30am 27.0 25.7 15.7 50 6.9 ESE 17 24 9 13 1014.0 1013.9 0.0
29/08:00am 25.2 23.6 14.9 52 6.2 ESE 17 20 9 11 1014.1 1014.0 0.0
29/07:30am 24.5 22.9 14.9 55 5.7 ESE 17 24 9 13 1013.8 1013.7 0.0
29/07:00am 24.6 23.0 15.0 55 5.7 SSE 17 24 9 13 1013.8 1013.7 0.0
29/06:30am 24.3 22.6 14.7 55 5.7 SE 17 22 9 12 1013.5 1013.4 0.0
29/06:00am 24.5 22.9 14.9 55 5.7 SSE 17 24 9 13 1013.0 1012.9 0.0
29/05:30am 24.8 22.8 14.9 54 5.9 SE 19 26 10 14 1012.6 1012.5 0.0
29/05:00am 24.9 22.6 14.7 53 6.1 SE 20 28 11 15 1012.6 1012.5 0.0
29/04:30am 25.2 23.1 14.6 51 6.3 SE 19 24 10 13 1012.2 1012.1 0.0
29/04:00am 25.2 23.1 14.6 51 6.3 ESE 19 28 10 15 1012.3 1012.2 0.0
29/03:30am 25.3 23.1 14.4 50 6.5 SE 19 28 10 15 1012.5 1012.4 0.0
29/03:00am 25.2 22.8 14.3 50 6.5 SE 20 26 11 14 1012.3 1012.2 0.0
29/02:30am 25.4 23.0 13.9 49 6.8 SE 19 28 10 15 1012.4 1012.3 0.0
29/02:00am 25.8 22.9 14.0 48 7.0 SE 22 30 12 16 1012.5 1012.4 0.0
29/01:30am 26.1 22.8 13.9 47 7.2 SSE 24 33 13 18 1012.7 1012.6 0.0
29/01:00am 26.5 23.5 13.6 45 7.6 SE 22 30 12 16 1012.9 1012.8 0.0
29/12:30am 26.5 23.0 13.3 44 7.7 SSE 24 37 13 20 1012.7 1012.6 0.0
29/12:00am 27.2 23.5 12.8 41 8.4 SSE 24 33 13 18 1012.9 1012.8 0.0
 
Date/Time
EST
Temp
°C
App
Temp
°C
Dew
Point
°C
Rel
Hum
%
Delta-T
°C
Wind Press
QNH
hPa
Press
MSL
hPa
Rain since
9am
mm
Dir  Spd
km/h
Gust
km/h
Spd
kts
Gust
kts
28/11:30pm 27.9 24.6 12.7 39 8.9 SSE 22 37 12 20 1012.8 1012.7 0.0
28/11:00pm 28.8 27.1 13.5 39 9.1 SSE 15 26 8 14 1012.6 1012.5 0.0
28/10:30pm 28.9 27.4 14.3 40 8.8 SSE 15 19 8 10 1012.5 1012.4 0.0
28/10:00pm 28.4 29.2 17.3 51 7.0 SSE 9 13 5 7 1012.4 1012.3 0.0
28/09:30pm 28.3 30.6 19.8 60 5.5 SSE 7 11 4 6 1011.7 1011.6 0.0
28/09:00pm 27.9 30.5 20.5 64 4.9 SSW 7 9 4 5 1011.2 1011.1 0.0
28/08:30pm 27.9 29.5 20.7 65 4.8 SW 13 19 7 10 1011.0 1010.9 0.0
28/08:00pm 27.8 28.5 20.4 64 4.9 SSW 17 24 9 13 1010.5 1010.4 0.0
28/07:30pm 27.9 28.2 20.5 64 4.9 SSW 19 28 10 15 1010.2 1010.1 0.0
28/07:00pm 28.2 28.4 20.5 63 5.1 SW 20 32 11 17 1010.0 1009.9 0.0
28/06:30pm 28.4 28.8 20.7 63 5.1 SSW 19 28 10 15 1009.8 1009.7 0.0
28/06:00pm 29.1 27.9 20.0 58 6.0 SW 26 35 14 19 1009.5 1009.4 0.0
28/05:30pm 30.8 29.7 17.8 45 8.3 WSW 20 30 11 16 1008.8 1008.7 0.0
28/05:00pm 32.3 30.9 17.0 40 9.7 W 20 30 11 16 1008.4 1008.3 0.0
28/04:30pm 33.3 31.2 17.1 38 10.3 W 24 33 13 18 1008.3 1008.2 0.0
28/04:00pm 33.6 31.8 16.9 37 10.7 WSW 22 33 12 18 1008.2 1008.1 0.0
28/03:30pm 34.2 32.9 19.1 41 9.9 WSW 24 33 13 18 1008.1 1008.0 0.0
28/03:00pm 36.2 36.8 15.9 30 12.9 WNW 7 17 4 9 1008.3 1008.2 0.0
28/02:30pm 36.4 36.5 15.5 29 13.2 WSW 9 15 5 8 1008.4 1008.3 0.0
28/02:00pm 34.8 34.7 16.1 32 11.8 ESE 11 20 6 11 1008.6 1008.5 0.0
28/01:30pm 34.9 34.9 16.2 32 11.8 ESE 11 20 6 11 1009.0 1008.9 0.0
28/01:00pm 35.9 35.1 16.1 30 12.6 NE 15 22 8 12 1009.6 1009.5 0.0
28/12:30pm 34.6 34.1 16.0 33 11.7 NE 13 20 7 11 1010.1 1010.0 0.0
28/12:00pm 34.6 34.6 17.3 35 11.1 NE 13 20 7 11 1010.8 1010.7 0.0
28/11:30am 33.4 33.7 18.0 40 10.0 E 13 19 7 10 1011.1 1011.0 0.0
28/11:00am 33.0 33.7 18.0 41 9.7 N 11 20 6 11 1011.6 1011.5 0.0

Other formats

Comma delimited format used in spreadsheet applications
http://www.bom.gov.au/fwo/IDQ60801/IDQ60801.94268.axf

JavaScript Object Notation format (JSON) in row-major order
http://www.bom.gov.au/fwo/IDQ60801/IDQ60801.94268.json

Data quality

Most of these data are generated automatically and are frequently updated. Quality checks on data are not normally performed. It is possible for incorrect values to appear. Refer to information at About Latest Weather Observations and please check the disclaimer before using these data.